N615KK -KSAN
Flight info
| Callsign | N615KK |
|---|---|
| Flight time | N/A |
| Altitude | VFR |
| Route | VFR PW |
| Aircraft | C152/L-VGD/C |
Departure
| Time | N/A |
|---|---|
| Airport | - |
Arrival
| Time | 2026-04-23 23:31 |
|---|---|
| Airport | San Diego International Airport (KSAN) |
| Time | Latitude | Longitude | Altitude | Speed | Heading |
|---|---|---|---|---|---|
| 2026-04-23 23:31 | 32.73413 | -117.17974 | 21 ft | 0 kts | 290° |
| 2026-04-23 23:33 | 32.73414 | -117.17978 | 21 ft | 0 kts | 244° |
| 2026-04-23 23:33 | 32.73410 | -117.17980 | 21 ft | 0 kts | 166° |
| 2026-04-23 23:33 | 32.73381 | -117.17953 | 21 ft | 9 kts | 143° |
| 2026-04-23 23:34 | 32.73289 | -117.17977 | 18 ft | 13 kts | 191° |
| 2026-04-23 23:34 | 32.73224 | -117.17944 | 16 ft | 15 kts | 101° |
| 2026-04-23 23:34 | 32.73178 | -117.17757 | 17 ft | 27 kts | 105° |
| 2026-04-23 23:34 | 32.73143 | -117.17614 | 16 ft | 16 kts | 110° |
| 2026-04-23 23:35 | 32.73080 | -117.17540 | 16 ft | 0 kts | 145° |
| 2026-04-23 23:35 | 32.73074 | -117.17534 | 17 ft | 6 kts | 147° |
| 2026-04-23 23:35 | 32.73014 | -117.17566 | 17 ft | 13 kts | 281° |
| 2026-04-23 23:35 | 32.73068 | -117.17785 | 15 ft | 49 kts | 286° |
| 2026-04-23 23:36 | 32.73171 | -117.18295 | 109 ft | 68 kts | 281° |
| 2026-04-23 23:36 | 32.73247 | -117.18833 | 329 ft | 67 kts | 282° |
| 2026-04-23 23:36 | 32.73357 | -117.19361 | 536 ft | 64 kts | 285° |
| 2026-04-23 23:36 | 32.73498 | -117.19871 | 663 ft | 65 kts | 291° |
| 2026-04-23 23:37 | 32.73723 | -117.20328 | 839 ft | 62 kts | 310° |
| 2026-04-23 23:37 | 32.74198 | -117.20404 | 1023 ft | 84 kts | 14° |
| 2026-04-23 23:37 | 32.74595 | -117.19817 | 1158 ft | 104 kts | 72° |
| 2026-04-23 23:37 | 32.74598 | -117.18962 | 1213 ft | 105 kts | 102° |
| 2026-04-23 23:38 | 32.74430 | -117.18183 | 1167 ft | 89 kts | 111° |
| 2026-04-23 23:38 | 32.74218 | -117.17514 | 1199 ft | 87 kts | 117° |
| 2026-04-23 23:38 | 32.73945 | -117.16857 | 1196 ft | 91 kts | 124° |
| 2026-04-23 23:38 | 32.73646 | -117.16229 | 1245 ft | 85 kts | 120° |
| 2026-04-23 23:39 | 32.73408 | -117.15594 | 1234 ft | 82 kts | 125° |
| 2026-04-23 23:39 | 32.73023 | -117.15240 | 1333 ft | 67 kts | 178° |
| 2026-04-23 23:39 | 32.72514 | -117.15292 | 1283 ft | 71 kts | 219° |
| 2026-04-23 23:39 | 32.72317 | -117.15791 | 1116 ft | 75 kts | 282° |
| 2026-04-23 23:40 | 32.72611 | -117.16221 | 887 ft | 64 kts | 307° |
| 2026-04-23 23:40 | 32.72797 | -117.16699 | 612 ft | 66 kts | 284° |
| 2026-04-23 23:40 | 32.72948 | -117.17222 | 321 ft | 65 kts | 283° |
| 2026-04-23 23:40 | 32.73044 | -117.17708 | 153 ft | 60 kts | 284° |
| 2026-04-23 23:41 | 32.73156 | -117.18166 | 42 ft | 55 kts | 287° |
| 2026-04-23 23:41 | 32.73251 | -117.18539 | 19 ft | 39 kts | 286° |
| 2026-04-23 23:41 | 32.73308 | -117.18754 | 17 ft | 18 kts | 296° |
| 2026-04-23 23:41 | 32.73385 | -117.18815 | 16 ft | 13 kts | 16° |
| 2026-04-23 23:42 | 32.73418 | -117.18750 | 16 ft | 9 kts | 104° |
| 2026-04-23 23:42 | 32.73417 | -117.18744 | 16 ft | 0 kts | 104° |
| 2026-04-23 23:43 | 32.73409 | -117.18711 | 16 ft | 11 kts | 106° |
| 2026-04-23 23:43 | 32.73382 | -117.18604 | 18 ft | 15 kts | 108° |
| 2026-04-23 23:44 | 32.73348 | -117.18459 | 19 ft | 22 kts | 106° |
| 2026-04-23 23:44 | 32.73304 | -117.18281 | 17 ft | 23 kts | 107° |
| 2026-04-23 23:44 | 32.73262 | -117.18107 | 17 ft | 21 kts | 105° |
| 2026-04-23 23:44 | 32.73216 | -117.17916 | 16 ft | 28 kts | 107° |
| 2026-04-23 23:45 | 32.73169 | -117.17719 | 17 ft | 20 kts | 104° |
| 2026-04-23 23:45 | 32.73133 | -117.17583 | 16 ft | 12 kts | 132° |
| 2026-04-23 23:45 | 32.73084 | -117.17544 | 16 ft | 1 kts | 144° |
| 2026-04-23 23:45 | 32.73039 | -117.17531 | 17 ft | 10 kts | 200° |
| 2026-04-23 23:46 | 32.73029 | -117.17627 | 16 ft | 23 kts | 285° |
| 2026-04-23 23:46 | 32.73117 | -117.18005 | 41 ft | 63 kts | 283° |
| 2026-04-23 23:46 | 32.73242 | -117.18527 | 224 ft | 67 kts | 289° |
| 2026-04-23 23:46 | 32.73412 | -117.19017 | 512 ft | 57 kts | 290° |
| 2026-04-23 23:47 | 32.73538 | -117.19454 | 750 ft | 59 kts | 287° |
| 2026-04-23 23:47 | 32.73705 | -117.19897 | 979 ft | 61 kts | 304° |
| 2026-04-23 23:47 | 32.74143 | -117.20124 | 1136 ft | 81 kts | 351° |
| 2026-04-23 23:47 | 32.74716 | -117.19760 | 1271 ft | 100 kts | 48° |
| 2026-04-23 23:48 | 32.74926 | -117.18956 | 1304 ft | 109 kts | 89° |
| 2026-04-23 23:48 | 32.74755 | -117.18147 | 1274 ft | 98 kts | 115° |
| 2026-04-23 23:48 | 32.74492 | -117.17426 | 1255 ft | 90 kts | 120° |
| 2026-04-23 23:48 | 32.74216 | -117.16766 | 1235 ft | 93 kts | 121° |
| 2026-04-23 23:49 | 32.73607 | -117.15442 | 1227 ft | 88 kts | 130° |
| 2026-04-23 23:49 | 32.73159 | -117.15122 | 1113 ft | 69 kts | 190° |
| 2026-04-23 23:49 | 32.72772 | -117.15352 | 1004 ft | 62 kts | 242° |
| 2026-04-23 23:50 | 32.72661 | -117.15850 | 869 ft | 59 kts | 267° |
| 2026-04-23 23:50 | 32.72700 | -117.16356 | 638 ft | 67 kts | 282° |
| 2026-04-23 23:50 | 32.72838 | -117.16868 | 397 ft | 59 kts | 286° |
| 2026-04-23 23:50 | 32.72944 | -117.17325 | 236 ft | 58 kts | 282° |
| 2026-04-23 23:51 | 32.73050 | -117.17784 | 110 ft | 56 kts | 285° |
| 2026-04-23 23:51 | 32.73161 | -117.18193 | 43 ft | 47 kts | 288° |
| 2026-04-23 23:51 | 32.73250 | -117.18552 | 19 ft | 44 kts | 288° |
| 2026-04-23 23:51 | 32.73335 | -117.18926 | 100 ft | 53 kts | 284° |
| 2026-04-23 23:52 | 32.73383 | -117.19338 | 347 ft | 47 kts | 279° |
| 2026-04-23 23:52 | 32.73478 | -117.19714 | 547 ft | 51 kts | 287° |
| 2026-04-23 23:52 | 32.73663 | -117.20098 | 731 ft | 62 kts | 322° |
| 2026-04-23 23:52 | 32.74142 | -117.20049 | 902 ft | 85 kts | 26° |
| 2026-04-23 23:53 | 32.74384 | -117.19378 | 1153 ft | 96 kts | 91° |
| 2026-04-23 23:53 | 32.74318 | -117.18539 | 1151 ft | 106 kts | 99° |
| 2026-04-23 23:53 | 32.74182 | -117.17711 | 1131 ft | 95 kts | 108° |
| 2026-04-23 23:53 | 32.73978 | -117.17007 | 1201 ft | 88 kts | 115° |
| 2026-04-23 23:54 | 32.73698 | -117.16346 | 1205 ft | 94 kts | 124° |
| 2026-04-23 23:54 | 32.73283 | -117.15849 | 1065 ft | 81 kts | 166° |
| 2026-04-23 23:54 | 32.72793 | -117.15889 | 889 ft | 66 kts | 225° |
| 2026-04-23 23:54 | 32.72688 | -117.16376 | 698 ft | 71 kts | 284° |
| 2026-04-23 23:55 | 32.72866 | -117.16915 | 404 ft | 69 kts | 285° |
| 2026-04-23 23:55 | 32.72985 | -117.17427 | 195 ft | 58 kts | 283° |
| 2026-04-23 23:55 | 32.73088 | -117.17871 | 98 ft | 52 kts | 287° |
| 2026-04-23 23:55 | 32.73184 | -117.18266 | 33 ft | 45 kts | 286° |
| 2026-04-23 23:56 | 32.73262 | -117.18581 | 19 ft | 43 kts | 287° |
| 2026-04-23 23:56 | 32.73349 | -117.18973 | 135 ft | 50 kts | 284° |
| 2026-04-23 23:56 | 32.73460 | -117.19441 | 272 ft | 63 kts | 287° |
| 2026-04-23 23:56 | 32.73596 | -117.19936 | 496 ft | 62 kts | 288° |
| 2026-04-23 23:57 | 32.73799 | -117.20331 | 754 ft | 64 kts | 320° |
| 2026-04-23 23:57 | 32.74304 | -117.20302 | 890 ft | 89 kts | 20° |
| 2026-04-23 23:57 | 32.74713 | -117.19700 | 1052 ft | 102 kts | 71° |
| 2026-04-23 23:57 | 32.74646 | -117.18880 | 1193 ft | 98 kts | 108° |
| 2026-04-23 23:58 | 32.74469 | -117.18109 | 1274 ft | 99 kts | 109° |
| 2026-04-23 23:58 | 32.74285 | -117.17337 | 1369 ft | 97 kts | 109° |
| 2026-04-23 23:58 | 32.74083 | -117.16632 | 1319 ft | 86 kts | 117° |
| 2026-04-23 23:58 | 32.73747 | -117.16108 | 1265 ft | 70 kts | 172° |
| 2026-04-23 23:59 | 32.73280 | -117.16200 | 1163 ft | 71 kts | 225° |
| 2026-04-23 23:59 | 32.72947 | -117.16696 | 894 ft | 72 kts | 250° |
| 2026-04-23 23:59 | 32.72953 | -117.17222 | 722 ft | 59 kts | 286° |
| 2026-04-23 23:59 | 32.73090 | -117.17745 | 953 ft | 67 kts | 285° |
| 2026-04-24 00:00 | 32.73236 | -117.18287 | 1139 ft | 68 kts | 287° |
| 2026-04-24 00:00 | 32.73337 | -117.18646 | 1156 ft | 75 kts | 285° |
| 2026-04-24 00:00 | 32.73489 | -117.19126 | 1418 ft | 54 kts | 285° |
| 2026-04-24 00:00 | 32.73613 | -117.19496 | 1429 ft | 39 kts | 289° |
| 2026-04-24 00:01 | 32.73654 | -117.19589 | 285 ft | 12 kts | 270° |
| 2026-04-24 00:01 | 32.73633 | -117.19596 | 23 ft | 0 kts | 277° |